Station: Blackall

  Atmospheric Gas Attenuation - ITU Rec 676-11   --------------- db/100km ---------------
Date Time Temp RH % AH g/m3 Dew Point Wind Direction Speed kph Gust kph Barometer mB Rainfall Since 9am 24GHz 47GHz 76GHz 122GHz 134GHz 241GHz
27 01:50 23.3 75 15.68 18.6 15 17 1007 0 34.1 34.4 63.2 167.0 178.8 620.6
27 01:40 23.4 74 15.56 18.5 17 20 1007.1 0 33.8 34.2 62.6 165.4 176.9 613.8
27 01:30 23.4 74 15.56 18.5 15 20 1007.2 0 33.8 34.2 62.6 165.4 176.9 613.8
27 01:20 23.4 74 15.56 18.5 11 13 1007.3 0 33.8 34.2 62.6 165.4 176.9 613.9
27 01:10 23.5 74 15.65 18.6 13 15 1007.5 0 34.0 34.3 62.9 166.3 178.0 617.7
27 01:00 23.6 74 15.74 18.7 11 17 1007.6 0 34.2 34.4 63.2 167.1 179.1 621.4
27 00:50 23.8 73 15.7 18.7 11 13 1007.7 0 34.1 34.3 62.9 166.2 178.0 617.8
27 00:40 23.9 73 15.79 18.8 15 19 1007.7 0 34.3 34.4 63.2 167.1 179.1 621.5
27 00:30 23.9 73 15.79 18.8 13 19 1007.8 0 34.3 34.4 63.2 167.1 179.1 621.6
27 00:20 24.1 73 15.97 19 13 15 1007.8 0 34.6 34.6 63.8 168.8 181.2 629.0
27 00:10 24.2 72 15.84 18.8 13 13 1007.8 0 34.4 34.4 63.2 167.0 179.1 621.6
27 00:00 24.3 71 15.71 18.7 13 20 1007.9 0 34.1 34.1 62.5 165.3 177.0 614.4
26 23:50 24.5 70 15.67 18.7 19 20 1008.1 0 34.0 34.0 62.2 164.4 176.0 610.9
26 23:40 24.6 70 15.75 18.8 15 19 1008.1 0 34.1 34.1 62.5 165.1 176.9 614.1
26 23:30 24.7 69 15.62 18.6 13 19 1008 0 33.8 33.8 61.8 163.4 174.8 606.8
26 23:20 24.9 68 15.57 18.6 17 19 1008.1 0 33.7 33.6 61.5 162.4 173.7 602.8
26 23:10 24.9 68 15.57 18.6 15 17 1007.9 0 33.7 33.6 61.5 162.4 173.7 602.8
26 23:00 25.1 66 15.28 18.3 15 19 1008 0 33.1 33.1 60.1 158.7 169.2 587.1
26 22:50 25.3 64 14.98 18.2 13 17 1008.2 0 32.4 32.5 58.7 155.0 164.6 571.2
26 22:40 25.5 64 15.15 18.2 15 17 1008.2 0 32.8 32.7 59.2 156.5 166.5 577.9
26 22:30 25.9 63 15.25 18.3 13 17 1008.1 0 33.0 32.7 59.3 156.8 167.0 579.7
26 22:20 26.1 61 14.93 18.2 11 15 1008.1 0 32.3 32.1 57.8 152.8 162.2 563.0
26 22:10 26.4 61 15.19 18.3 15 17 1008.1 0 32.8 32.4 58.7 155.1 165.1 573.1
26 22:00 26.6 61 15.36 18.5 13 17 1008 0 33.1 32.6 59.3 156.6 167.0 579.7
26 21:50 26.8 60 15.27 18.4 15 17 1007.9 0 32.9 32.4 58.7 155.2 165.3 573.9
26 21:40 27.1 59 15.27 18.4 13 15 1007.9 0 32.9 32.3 58.5 154.6 164.7 571.7
26 21:30 27.4 57 15 18.1 17 22 1008.1 0 32.3 31.7 57.2 151.1 160.4 556.9
26 21:20 28 55 14.96 18.1 20 24 1007.9 0 32.2 31.4 56.6 149.4 158.6 550.7
26 21:10 28.5 52 14.54 17.7 15 17 1007.8 0 31.3 30.6 54.5 144.0 152.1 528.0
26 21:00 28.6 50 14.05 17.2 11 15 1007.6 0 30.2 29.8 52.5 138.7 145.6 505.2
26 20:50 28.7 49 13.85 17.2 11 11 1007.5 0 29.8 29.4 51.7 136.4 142.8 495.7
26 20:40 28.8 49 13.92 17 9 11 1007.4 0 30.0 29.5 51.9 137.0 143.5 498.1
26 20:30 28.9 49 14 17.1 11 13 1007.2 0 30.1 29.6 52.1 137.6 144.3 501.0
26 20:20 29.1 48 13.86 17 13 15 1007.2 0 29.8 29.3 51.4 135.8 142.2 493.5
26 20:10 29.3 48 14.02 17.2 15 17 1007 0 30.1 29.5 51.9 137.1 143.8 499.2
26 20:00 29.5 47 13.87 17 15 19 1006.9 0 29.8 29.2 51.2 135.2 141.6 491.4
26 19:50 29.8 47 14.1 17.3 15 19 1006.9 0 30.3 29.4 51.9 137.0 143.9 499.6
26 19:40 30 47 14.26 17.5 13 17 1006.7 0 30.6 29.6 52.4 138.3 145.5 505.3
26 19:30 30 47 14.26 17.5 11 15 1006.4 0 30.6 29.6 52.4 138.3 145.5 505.2
26 19:20 30.2 46 14.1 17.6 11 11 1006.3 0 30.2 29.3 51.6 136.3 143.1 496.8
26 19:10 30.3 46 14.18 17.7 15 17 1006.3 0 30.4 29.4 51.8 136.9 143.9 499.7
26 19:00 30.4 46 14.26 17.8 15 24 1006.2 0 30.6 29.4 52.1 137.5 144.7 502.6
26 18:50 30.5 46 14.33 17.6 19 20 1006.1 0 30.7 29.5 52.3 138.1 145.4 504.9
26 18:40 30.7 45 14.17 17.7 17 20 1006 0 30.3 29.2 51.5 136.1 143.0 496.7
26 18:30 30.8 45 14.25 17.8 19 26 1005.8 0 30.5 29.3 51.8 136.7 143.8 499.4
26 18:20 31 43 13.76 17.3 19 22 1005.5 0 29.5 28.5 49.8 131.4 137.4 476.9
26 18:10 31.2 42 13.59 17.1 15 17 1005.4 0 29.1 28.1 49.0 129.4 134.9 468.5
26 18:00 31.3 42 13.66 17.2 19 26 1005.1 0 29.2 28.2 49.2 129.9 135.6 470.8
26 17:50 31.4 43 14.06 17.3 17 19 1005.2 0 30.1 28.8 50.6 133.7 140.3 487.3
26 17:40 31.5 41 13.48 17 20 24 1005.1 0 28.9 27.9 48.4 127.8 133.1 462.0
26 17:30 31.7 42 13.96 17.2 17 24 1005 0 29.8 28.5 50.1 132.2 138.5 481.1
26 17:20 31.9 39 13.1 16.6 19 20 1005.1 0 28.0 27.2 46.8 123.5 127.9 443.8
26 17:10 32.2 40 13.65 16.9 13 17 1005 0 29.2 27.9 48.6 128.3 133.9 465.0
26 17:00 32.1 40 13.58 16.8 13 19 1004.8 0 29.0 27.8 48.4 127.8 133.2 462.6
26 16:50 32.2 40 13.65 16.9 15 17 1004.7 0 29.2 27.9 48.6 128.3 133.9 464.9
26 16:40 32.3 40 13.73 17 11 13 1004.7 0 29.3 28.0 48.8 128.9 134.7 467.7
26 16:30 32.2 40 13.65 16.9 13 19 1004.5 0 29.2 27.9 48.6 128.3 133.9 464.9
26 16:20 32 39 13.17 16.3 15 15 1004.5 0 28.2 27.2 47.0 123.9 128.5 446.0
26 16:10 32.1 39 13.24 16.4 7 9 1004.5 0 28.3 27.3 47.1 124.4 129.1 448.3
26 16:00 32.3 39 13.38 16.6 17 24 1004.5 0 28.6 27.4 47.5 125.5 130.5 453.0
26 15:50 32.1 39 13.24 16.4 22 26 1004.5 0 28.3 27.3 47.1 124.4 129.1 448.3
26 15:40 32.5 39 13.53 16.8 9 13 1004.5 0 28.9 27.6 48.0 126.6 131.9 458.1
26 15:30 33 39 13.89 17.2 17 26 1004.4 0 29.6 28.0 49.0 129.3 135.4 470.2
26 15:20 33 38 13.53 16.8 11 15 1004.3 0 28.9 27.4 47.7 125.8 131.1 455.2
26 15:10 32.9 38 13.46 16.7 20 24 1004.4 0 28.7 27.4 47.5 125.3 130.4 452.9
26 15:00 33 38 13.53 16.8 17 28 1004.7 0 28.9 27.5 47.7 125.9 131.1 455.4
26 14:50 32.7 38 13.32 16.9 9 13 1004.7 0 28.4 27.2 47.1 124.3 129.1 448.4
26 14:40 32.7 39 13.67 17.3 20 20 1005 0 29.2 27.8 48.4 127.7 133.3 463.0
26 14:30 32.3 41 14.07 17.4 15 20 1005.2 0 30.0 28.5 50.1 132.3 138.9 482.3
26 14:20 31.9 42 14.11 17.4 13 17 1005.5 0 30.1 28.7 50.5 133.4 140.1 486.5
26 14:10 31.7 42 13.96 17.2 17 17 1005.5 0 29.8 28.5 50.1 132.3 138.6 481.3
26 14:00 31.8 42 14.03 17.3 17 24 1005.7 0 30.0 28.6 50.3 132.8 139.3 483.8
26 13:50 32.1 40 13.58 16.8 22 24 1005.8 0 29.0 27.8 48.4 127.9 133.3 463.0
26 13:40 32.6 40 13.95 17.6 15 22 1005.8 0 29.8 28.2 49.5 130.7 136.9 475.6
26 13:30 32.6 40 13.95 17.6 19 26 1005.9 0 29.8 28.2 49.5 130.7 137.0 475.6
26 13:20 32 40 13.51 16.7 22 24 1006.1 0 28.9 27.8 48.3 127.4 132.7 460.7
26 13:10 32.3 40 13.73 17 17 22 1006.4 0 29.3 28.0 48.9 129.1 134.9 468.3
26 13:00 31.9 39 13.1 16.6 17 28 1006.5 0 28.0 27.2 46.8 123.6 128.0 444.3
26 12:50 32.2 40 13.65 16.9 17 24 1006.4 0 29.2 27.9 48.7 128.5 134.1 465.5
26 12:40 32.4 39 13.45 16.7 13 15 1006.6 0 28.7 27.6 47.8 126.3 131.4 456.1
26 12:30 32.1 40 13.58 16.8 17 28 1006.6 0 29.0 27.9 48.5 128.0 133.4 463.3
26 12:20 32.8 38 13.39 16.6 19 22 1006.7 0 28.6 27.4 47.4 125.1 130.0 451.4
26 12:10 32.5 39 13.53 16.8 19 24 1006.8 0 28.9 27.7 48.1 126.9 132.2 458.9
26 12:00 31.7 43 14.29 17.6 19 33 1006.9 0 30.5 29.1 51.4 135.7 142.8 496.0
26 11:50 31.8 40 13.36 16.9 20 24 1007 0 28.6 27.7 47.9 126.4 131.3 455.9
26 11:40 31.7 42 13.96 17.2 15 19 1007.2 0 29.8 28.6 50.2 132.5 138.8 481.9
26 11:30 31.9 39 13.1 16.6 22 32 1007.3 0 28.0 27.3 46.9 123.7 128.1 444.6
26 11:20 31.3 42 13.66 17.2 19 22 1007.4 0 29.2 28.3 49.3 130.2 135.8 471.6
26 11:10 31.6 41 13.55 17.1 30 35 1007.5 0 29.0 28.0 48.7 128.6 134.0 465.2
26 11:00 31.3 42 13.66 17.2 24 35 1007.6 0 29.2 28.3 49.3 130.2 135.9 471.7
26 10:50 30.8 45 14.25 17.5 17 30 1007.7 0 30.5 29.3 51.9 136.9 144.0 500.2
26 10:40 30.1 46 14.03 17.2 22 26 1007.6 0 30.1 29.2 51.5 135.9 142.5 494.9
26 10:30 30 47 14.26 17.5 24 35 1007.6 0 30.6 29.6 52.4 138.4 145.6 505.6
26 10:20 30.3 44 13.56 16.7 28 33 1007.6 0 29.1 28.4 49.6 130.8 136.4 473.3
26 10:10 29.2 50 14.52 17.7 20 24 1007.7 0 31.2 30.3 54.0 142.5 150.5 522.4
26 10:00 29.3 51 14.89 18.1 20 28 1007.9 0 31.9 30.9 55.4 146.3 155.1 538.5
26 09:50 28.3 54 14.93 18.1 20 24 1007.8 0 32.1 31.3 56.2 148.5 157.6 547.2
26 09:40 28.5 54 15.09 18.3 22 24 1007.9 0 32.4 31.5 56.7 149.9 159.3 553.2
26 09:30 28 55 14.96 18.1 24 35 1007.9 0 32.2 31.4 56.6 149.4 158.6 550.7
26 09:20 28.7 53 14.98 18.2 26 33 1007.9 0 32.2 31.2 56.1 148.3 157.5 546.8

Last Refresh: 27-Feb-2021 02:37:36

Most of the information presented on this site is sourced from the Bureau of Meteorology.  Copyright in all material sourced from the Bureau of Meteorology resides with the Commonwealth of Australia.